Time;durP1;ratioP1;P1;durP2;ratioP2;P2;SDS_P1;SDS_P2;PMS_P1;PMS_P2;Temp;Humidity;BMP_temperature;BMP_pressure;BME280_temperature;BME280_humidity;BME280_pressure;Samples;Min_cycle;Max_cycle;Signal;HPM_P1;HPM_P2
2023/06/10 00:01:46;;;;;;;8.40;4.93;;;19.20;97.80;;;;;;5009329;28;20049;-66
2023/06/10 00:04:13;;;;;;;8.10;4.85;;;19.10;98.30;;;;;;5008000;28;20683;-68
2023/06/10 00:06:39;;;;;;;7.28;5.53;;;19.10;98.10;;;;;;5007029;28;20039;-67
2023/06/10 00:09:05;;;;;;;11.05;5.10;;;19.10;98.10;;;;;;5005722;28;21394;-68
2023/06/10 00:11:34;;;;;;;8.38;4.65;;;19.20;98.30;;;;;;4999638;28;20038;-68
2023/06/10 00:14:00;;;;;;;15.55;5.28;;;19.20;98.00;;;;;;5013848;28;20143;-67
2023/06/10 00:16:26;;;;;;;6.38;5.20;;;19.20;97.80;;;;;;5010995;28;20108;-67
2023/06/10 00:18:52;;;;;;;8.35;5.53;;;19.20;97.80;;;;;;5011417;28;20037;-66
2023/06/10 00:21:18;;;;;;;9.23;5.22;;;19.20;97.80;;;;;;5010268;28;20025;-67
2023/06/10 00:23:44;;;;;;;6.82;4.85;;;19.10;98.30;;;;;;5027870;28;20112;-67
2023/06/10 00:26:10;;;;;;;7.50;4.60;;;19.10;98.20;;;;;;5012333;28;20176;-68
2023/06/10 00:28:35;;;;;;;6.78;4.75;;;19.10;98.30;;;;;;5007148;28;20085;-67
2023/06/10 00:31:02;;;;;;;8.95;5.05;;;19.00;98.60;;;;;;5010744;28;20058;-67
2023/06/10 00:33:28;;;;;;;7.68;4.82;;;19.00;98.90;;;;;;5008877;28;20755;-67
2023/06/10 00:35:53;;;;;;;7.82;5.65;;;18.90;98.90;;;;;;5011468;28;20114;-68
2023/06/10 00:38:19;;;;;;;13.30;5.72;;;19.00;98.70;;;;;;5012889;28;20026;-67
2023/06/10 00:40:44;;;;;;;6.97;4.85;;;19.00;98.70;;;;;;5008880;28;21718;-67
2023/06/10 00:43:10;;;;;;;10.60;5.30;;;19.00;98.60;;;;;;5008069;28;20479;-67
2023/06/10 00:45:36;;;;;;;7.00;4.68;;;19.00;98.90;;;;;;5009224;28;20773;-67
2023/06/10 00:48:03;;;;;;;7.95;5.97;;;18.90;98.70;;;;;;5006692;28;20129;-68
2023/06/10 00:50:28;;;;;;;8.98;5.15;;;19.00;98.60;;;;;;5010546;28;20034;-68
2023/06/10 00:52:55;;;;;;;9.35;5.68;;;18.90;98.90;;;;;;5006887;28;20028;-67
2023/06/10 00:55:21;;;;;;;7.75;5.07;;;18.90;99.00;;;;;;5011274;28;20029;-67
2023/06/10 00:57:48;;;;;;;8.70;5.43;;;18.90;99.10;;;;;;5006078;28;20040;-68
2023/06/10 01:00:15;;;;;;;7.85;5.13;;;18.90;99.40;;;;;;5009278;28;20030;-67
2023/06/10 01:02:41;;;;;;;10.82;5.35;;;18.80;99.60;;;;;;5013918;28;20407;-68
2023/06/10 01:05:08;;;;;;;7.97;5.47;;;18.70;99.60;;;;;;5007011;28;20044;-67
2023/06/10 01:07:42;;;;;;;11.57;5.80;;;18.70;99.90;;;;;;5014660;28;20025;-68
2023/06/10 01:10:20;;;;;;;9.85;5.07;;;18.60;99.90;;;;;;5009606;28;20033;-67
2023/06/10 01:12:59;;;;;;;8.55;5.20;;;18.60;99.90;;;;;;4995014;28;20053;-68
2023/06/10 01:15:25;;;;;;;8.93;5.05;;;18.50;99.90;;;;;;5004742;28;20084;-67
2023/06/10 01:17:58;;;;;;;5.93;4.40;;;18.60;99.90;;;;;;5008680;28;20029;-67
2023/06/10 01:20:28;;;;;;;;;;;18.50;99.90;;;;;;5009015;28;20022;-68
2023/06/10 01:22:54;;;;;;;10.13;6.03;;;18.50;99.90;;;;;;5011063;28;19913;-68
2023/06/10 01:25:27;;;;;;;9.18;5.45;;;18.50;99.90;;;;;;5018861;28;20041;-67
2023/06/10 01:28:05;;;;;;;8.27;5.13;;;18.50;99.90;;;;;;5013203;28;20036;-67
2023/06/10 01:30:39;;;;;;;8.05;5.85;;;18.40;99.90;;;;;;5009326;28;20291;-67
2023/06/10 01:33:08;;;;;;;8.15;5.10;;;18.40;99.90;;;;;;5014774;28;20034;-67
2023/06/10 01:35:37;;;;;;;7.28;5.22;;;18.40;99.90;;;;;;5014048;28;20022;-67
2023/06/10 01:38:03;;;;;;;13.98;5.57;;;18.30;99.90;;;;;;5005162;28;20171;-67
2023/06/10 01:40:29;;;;;;;7.80;5.18;;;18.30;99.90;;;;;;5005680;28;20029;-67
2023/06/10 01:42:55;;;;;;;9.98;5.10;;;18.30;99.90;;;;;;5006768;28;20091;-67
2023/06/10 01:45:21;;;;;;;8.32;5.47;;;18.20;99.90;;;;;;5005677;28;20045;-67
2023/06/10 01:47:46;;;;;;;9.07;5.60;;;18.20;99.90;;;;;;5003503;28;20045;-67
2023/06/10 01:50:12;;;;;;;8.18;5.90;;;18.20;99.90;;;;;;5012394;28;20397;-67
2023/06/10 01:52:38;;;;;;;11.40;5.22;;;18.20;99.90;;;;;;5006068;28;20022;-67
2023/06/10 01:55:04;;;;;;;10.48;6.00;;;18.20;99.90;;;;;;5007062;28;20030;-67
2023/06/10 01:57:30;;;;;;;8.48;5.45;;;18.20;99.90;;;;;;5009979;28;20022;-67
2023/06/10 01:59:55;;;;;;;7.68;5.95;;;18.20;99.90;;;;;;5011978;28;20038;-68
2023/06/10 02:02:22;;;;;;;10.57;5.03;;;18.30;99.90;;;;;;5008329;28;20135;-67
2023/06/10 02:04:47;;;;;;;7.10;5.70;;;18.20;99.90;;;;;;5013078;28;20037;-68
2023/06/10 02:07:13;;;;;;;7.38;4.88;;;18.20;99.90;;;;;;5005391;28;20030;-67
2023/06/10 02:09:38;;;;;;;7.72;5.15;;;18.20;99.90;;;;;;5006459;28;20033;-67
2023/06/10 02:12:06;;;;;;;8.45;5.60;;;18.10;99.90;;;;;;4997610;28;20046;-68
2023/06/10 02:14:32;;;;;;;6.95;5.30;;;18.10;99.90;;;;;;5011728;28;20029;-68
2023/06/10 02:16:58;;;;;;;7.25;5.60;;;18.10;99.90;;;;;;5008385;28;20036;-68
2023/06/10 02:19:25;;;;;;;9.07;5.43;;;18.00;99.90;;;;;;5009868;28;20026;-67
2023/06/10 02:21:50;;;;;;;8.20;5.65;;;18.00;99.90;;;;;;5010499;28;20483;-67
2023/06/10 02:24:16;;;;;;;8.85;5.10;;;18.00;99.90;;;;;;5014402;28;20033;-67
2023/06/10 02:26:41;;;;;;;9.77;5.53;;;17.90;99.90;;;;;;5025449;28;20547;-68
2023/06/10 02:29:07;;;;;;;8.65;5.15;;;17.90;99.90;;;;;;5012909;28;20108;-67
2023/06/10 02:31:35;;;;;;;9.35;5.43;;;17.90;99.90;;;;;;5008130;28;20175;-67
2023/06/10 02:34:01;;;;;;;10.55;6.03;;;17.90;99.90;;;;;;5006173;28;20133;-67
2023/06/10 02:36:27;;;;;;;10.20;5.45;;;17.80;99.90;;;;;;5009007;28;20029;-67
2023/06/10 02:38:53;;;;;;;6.93;5.05;;;17.80;99.90;;;;;;5009230;28;20052;-68
2023/06/10 02:41:19;;;;;;;8.07;5.28;;;17.80;99.90;;;;;;5005892;28;20082;-67
2023/06/10 02:43:44;;;;;;;7.80;5.22;;;17.70;99.90;;;;;;5007599;28;20041;-68
2023/06/10 02:46:10;;;;;;;9.07;5.80;;;17.70;99.90;;;;;;5010652;28;20534;-67
2023/06/10 02:48:46;;;;;;;9.32;5.72;;;17.80;99.90;;;;;;5009186;28;20121;-67
2023/06/10 02:51:11;;;;;;;7.55;5.00;;;17.80;99.90;;;;;;5005279;28;20029;-67
2023/06/10 02:53:37;;;;;;;7.47;5.07;;;17.90;99.90;;;;;;5012418;28;20033;-67
2023/06/10 02:56:03;;;;;;;6.60;4.47;;;17.90;99.90;;;;;;5007930;28;20029;-67
2023/06/10 02:58:29;;;;;;;7.78;5.32;;;17.90;99.90;;;;;;5008868;28;20022;-67
2023/06/10 03:00:54;;;;;;;8.20;5.28;;;17.90;99.90;;;;;;5017690;28;20037;-67
2023/06/10 03:03:22;;;;;;;7.47;4.43;;;17.90;99.90;;;;;;5011136;28;20065;-68
2023/06/10 03:05:48;;;;;;;13.02;5.65;;;18.00;99.90;;;;;;5011119;28;20034;-66
2023/06/10 03:08:14;;;;;;;6.15;4.82;;;17.90;99.90;;;;;;5013294;28;21726;-68
2023/06/10 03:10:39;;;;;;;7.72;5.20;;;17.90;99.90;;;;;;5012146;28;20065;-68
2023/06/10 03:13:05;;;;;;;7.65;5.45;;;17.90;99.90;;;;;;4997415;28;20192;-67
2023/06/10 03:15:32;;;;;;;6.95;5.32;;;17.90;99.90;;;;;;5015948;28;20087;-67
2023/06/10 03:18:02;;;;;;;9.32;5.43;;;18.00;99.90;;;;;;5010287;28;20033;-67
2023/06/10 03:20:28;;;;;;;15.00;5.03;;;18.00;99.90;;;;;;5012977;28;20037;-69
2023/06/10 03:22:54;;;;;;;7.95;5.15;;;18.00;99.90;;;;;;5012931;28;20391;-68
2023/06/10 03:25:20;;;;;;;5.53;4.03;;;18.00;99.90;;;;;;5010016;28;20030;-67
2023/06/10 03:27:46;;;;;;;8.25;5.20;;;18.00;99.80;;;;;;5016932;28;20033;-67
2023/06/10 03:30:13;;;;;;;11.32;5.45;;;18.10;99.80;;;;;;5022287;28;20536;-68
2023/06/10 03:32:39;;;;;;;8.65;5.00;;;18.00;99.80;;;;;;5008457;28;20036;-68
2023/06/10 03:35:06;;;;;;;10.82;4.20;;;18.00;99.70;;;;;;5015898;28;20688;-68
2023/06/10 03:37:32;;;;;;;6.82;4.07;;;18.00;99.60;;;;;;5007421;28;20476;-68
2023/06/10 03:39:57;;;;;;;9.02;5.53;;;18.00;99.30;;;;;;5015124;28;20027;-68
2023/06/10 03:42:23;;;;;;;9.43;5.50;;;18.10;99.20;;;;;;5014656;28;20372;-68
2023/06/10 03:44:48;;;;;;;6.63;4.53;;;18.10;99.10;;;;;;5010457;28;20392;-68
2023/06/10 03:47:14;;;;;;;7.47;5.30;;;18.10;99.10;;;;;;5012147;28;20148;-68
2023/06/10 03:49:40;;;;;;;7.90;4.88;;;18.10;99.00;;;;;;5008510;28;20025;-68
2023/06/10 03:52:06;;;;;;;6.38;5.03;;;18.10;99.10;;;;;;5020128;28;20040;-68
2023/06/10 03:54:34;;;;;;;11.93;5.07;;;18.10;99.00;;;;;;5024940;28;20021;-68
2023/06/10 03:57:00;;;;;;;6.95;4.95;;;18.10;98.60;;;;;;5014135;28;20041;-68
2023/06/10 03:59:25;;;;;;;9.55;5.05;;;18.10;98.80;;;;;;5009548;28;20031;-68
2023/06/10 04:01:51;;;;;;;6.40;4.00;;;18.10;98.80;;;;;;5011102;28;20029;-68
2023/06/10 04:04:16;;;;;;;8.95;4.78;;;18.20;98.20;;;;;;5014739;28;20076;-68
2023/06/10 04:06:43;;;;;;;8.45;4.70;;;18.30;98.20;;;;;;5010252;28;20033;-68
2023/06/10 04:09:09;;;;;;;6.85;4.05;;;18.40;97.80;;;;;;5010581;28;20037;-68
2023/06/10 04:11:35;;;;;;;11.35;4.50;;;18.50;97.40;;;;;;5011146;28;20144;-68
2023/06/10 04:14:01;;;;;;;5.40;4.50;;;18.50;97.50;;;;;;4994719;28;20046;-68
2023/06/10 04:16:27;;;;;;;7.28;4.72;;;18.60;97.20;;;;;;5009020;28;20399;-68
2023/06/10 04:18:53;;;;;;;7.13;5.15;;;18.60;96.90;;;;;;5013766;28;20079;-67
2023/06/10 04:21:18;;;;;;;8.77;4.97;;;18.60;96.90;;;;;;5011256;28;20025;-68
2023/06/10 04:23:44;;;;;;;9.02;4.43;;;18.70;97.00;;;;;;5017077;28;20064;-68
2023/06/10 04:26:12;;;;;;;6.45;4.38;;;18.70;96.80;;;;;;5011805;28;20053;-68
2023/06/10 04:28:37;;;;;;;6.50;4.22;;;18.70;96.60;;;;;;5013903;28;20029;-68
2023/06/10 04:31:03;;;;;;;7.38;4.05;;;18.90;96.30;;;;;;5014953;28;20460;-68
2023/06/10 04:33:30;;;;;;;7.00;5.00;;;19.30;95.80;;;;;;5011945;28;20029;-68
2023/06/10 04:35:55;;;;;;;6.78;4.45;;;20.30;93.60;;;;;;5009479;28;20033;-68
2023/06/10 04:38:21;;;;;;;5.72;3.80;;;21.50;91.70;;;;;;5022351;28;20025;-68
2023/06/10 04:40:46;;;;;;;6.32;4.03;;;22.60;88.00;;;;;;5024329;28;20033;-67
2023/06/10 04:43:13;;;;;;;8.20;4.60;;;23.50;83.30;;;;;;5028532;28;20072;-69
2023/06/10 04:45:39;;;;;;;7.30;4.20;;;24.10;79.80;;;;;;5027167;28;20648;-68
2023/06/10 04:48:05;;;;;;;8.40;4.00;;;24.60;79.20;;;;;;5025128;28;22438;-68
2023/06/10 04:50:32;;;;;;;6.60;4.38;;;25.30;76.30;;;;;;5025318;28;20029;-68
2023/06/10 04:52:58;;;;;;;6.85;3.58;;;25.80;74.20;;;;;;5026528;28;20026;-68
2023/06/10 04:55:25;;;;;;;6.47;3.53;;;26.20;73.00;;;;;;5024747;28;20048;-68
2023/06/10 04:57:51;;;;;;;5.18;3.60;;;26.50;72.70;;;;;;5026718;28;20471;-67
2023/06/10 05:00:17;;;;;;;6.07;3.40;;;27.00;71.90;;;;;;5021703;28;20027;-68
2023/06/10 05:02:44;;;;;;;7.07;3.65;;;27.30;70.40;;;;;;5020962;28;20029;-69
2023/06/10 05:05:10;;;;;;;4.82;3.47;;;27.50;70.50;;;;;;5027712;28;20053;-69
2023/06/10 05:07:36;;;;;;;4.70;3.58;;;27.70;69.90;;;;;;5027703;28;20026;-67
2023/06/10 05:10:02;;;;;;;6.32;3.92;;;28.00;69.90;;;;;;5026307;28;20028;-68
2023/06/10 05:12:28;;;;;;;5.47;3.45;;;28.50;68.00;;;;;;5009708;28;20554;-67
2023/06/10 05:14:54;;;;;;;5.45;3.45;;;28.90;67.20;;;;;;5019707;28;20025;-68
2023/06/10 05:17:20;;;;;;;4.63;3.47;;;28.80;67.40;;;;;;5026699;28;20435;-68
2023/06/10 05:19:47;;;;;;;6.53;2.97;;;29.10;66.40;;;;;;5026326;28;20036;-68
2023/06/10 05:22:13;;;;;;;5.22;3.38;;;29.00;66.10;;;;;;5027917;28;20034;-68
2023/06/10 05:24:39;;;;;;;6.82;3.90;;;29.10;65.70;;;;;;5026971;28;20055;-68
2023/06/10 05:27:06;;;;;;;9.43;2.95;;;29.30;66.10;;;;;;5020335;28;20029;-68
2023/06/10 05:29:32;;;;;;;7.15;3.72;;;29.30;65.40;;;;;;5022084;28;20026;-68
2023/06/10 05:32:00;;;;;;;4.68;3.35;;;29.40;66.20;;;;;;5027547;28;20086;-69
2023/06/10 05:34:25;;;;;;;5.07;3.38;;;29.60;65.60;;;;;;5025014;28;20240;-69
2023/06/10 05:36:51;;;;;;;6.85;4.05;;;30.40;64.60;;;;;;5021002;28;20072;-66
2023/06/10 05:39:17;;;;;;;4.35;3.55;;;30.40;64.00;;;;;;5026685;28;20029;-69
2023/06/10 05:41:42;;;;;;;5.53;3.60;;;30.20;64.90;;;;;;5021856;28;20060;-66
2023/06/10 05:44:08;;;;;;;5.25;3.15;;;31.30;63.70;;;;;;5027047;28;20117;-66
2023/06/10 05:46:33;;;;;;;6.70;3.72;;;31.00;63.40;;;;;;5020632;28;20403;-66
2023/06/10 05:48:59;;;;;;;7.82;3.38;;;30.90;62.10;;;;;;5023263;28;20446;-66
2023/06/10 05:51:25;;;;;;;6.82;3.92;;;30.80;63.70;;;;;;5025893;28;20032;-66
2023/06/10 05:53:50;;;;;;;5.78;3.53;;;31.90;61.90;;;;;;5026335;28;20097;-66
2023/06/10 05:56:16;;;;;;;4.65;3.30;;;31.60;62.30;;;;;;5017433;28;21133;-66
2023/06/10 05:58:42;;;;;;;5.13;3.60;;;32.30;61.90;;;;;;5025395;28;20038;-66
2023/06/10 06:01:07;;;;;;;5.43;3.85;;;31.60;63.10;;;;;;5025622;28;20477;-66
2023/06/10 06:03:33;;;;;;;5.57;3.78;;;31.60;61.80;;;;;;5026249;28;20053;-67
2023/06/10 06:05:58;;;;;;;6.38;3.80;;;31.50;62.70;;;;;;5023870;28;20028;-66
2023/06/10 06:08:24;;;;;;;5.28;3.60;;;31.80;62.40;;;;;;5023135;28;20053;-66
2023/06/10 06:10:50;;;;;;;4.97;3.67;;;31.80;61.00;;;;;;5023464;28;20029;-67
2023/06/10 06:13:16;;;;;;;4.78;3.42;;;32.20;61.70;;;;;;5012462;28;20073;-66
2023/06/10 06:15:41;;;;;;;5.38;3.53;;;32.50;60.40;;;;;;5028454;28;20037;-66
2023/06/10 06:18:07;;;;;;;6.07;3.38;;;33.00;62.00;;;;;;5021321;28;20112;-67
2023/06/10 06:20:32;;;;;;;5.97;3.20;;;32.90;60.10;;;;;;5025955;28;20030;-68
2023/06/10 06:22:58;;;;;;;4.43;3.47;;;33.10;60.10;;;;;;5022654;28;20054;-67
2023/06/10 06:25:23;;;;;;;4.32;3.45;;;33.80;58.70;;;;;;5024743;28;20058;-67
2023/06/10 06:27:49;;;;;;;4.05;3.30;;;33.50;60.40;;;;;;5024801;28;20557;-69
2023/06/10 06:30:15;;;;;;;5.05;3.30;;;34.00;61.20;;;;;;5021408;28;20037;-67
2023/06/10 06:32:40;;;;;;;3.88;3.40;;;34.10;59.90;;;;;;5022712;28;20030;-67
2023/06/10 06:35:07;;;;;;;4.45;3.80;;;33.80;58.30;;;;;;5030537;28;20037;-68
2023/06/10 06:37:34;;;;;;;4.55;3.28;;;33.80;59.10;;;;;;5026293;28;20021;-68
2023/06/10 06:39:59;;;;;;;6.72;3.50;;;34.30;60.20;;;;;;5030761;28;20695;-68
2023/06/10 06:42:25;;;;;;;4.75;3.20;;;34.40;60.60;;;;;;5030500;28;20112;-67
2023/06/10 06:44:50;;;;;;;6.07;4.35;;;34.10;57.50;;;;;;5030231;28;20387;-67
2023/06/10 06:47:19;;;;;;;6.85;3.45;;;34.00;58.60;;;;;;5029058;28;20152;-68
2023/06/10 06:49:46;;;;;;;5.07;3.58;;;33.90;59.30;;;;;;5028094;28;20149;-67
2023/06/10 06:52:11;;;;;;;8.40;3.42;;;34.10;58.80;;;;;;5031235;28;20025;-68
2023/06/10 06:54:37;;;;;;;4.82;4.32;;;33.90;59.20;;;;;;5029414;28;20033;-67
2023/06/10 06:57:03;;;;;;;5.38;3.47;;;34.00;58.50;;;;;;5027066;28;20035;-68
2023/06/10 06:59:28;;;;;;;6.18;4.18;;;34.30;58.50;;;;;;5030215;28;20451;-68
2023/06/10 07:01:54;;;;;;;4.68;3.45;;;34.60;58.70;;;;;;5030241;28;20107;-67
2023/06/10 07:04:21;;;;;;;4.93;3.72;;;34.70;56.80;;;;;;5024827;28;20526;-67
2023/06/10 07:06:48;;;;;;;8.00;4.00;;;36.00;57.00;;;;;;5028568;28;20034;-67
2023/06/10 07:09:13;;;;;;;4.65;3.83;;;35.50;56.10;;;;;;5028242;28;20022;-67
2023/06/10 07:11:39;;;;;;;5.85;3.28;;;35.70;59.00;;;;;;5029129;28;20119;-67
2023/06/10 07:14:05;;;;;;;5.13;3.63;;;35.70;56.40;;;;;;5015816;28;20048;-68
2023/06/10 07:16:30;;;;;;;8.73;3.38;;;35.30;56.50;;;;;;5029772;28;20021;-67
2023/06/10 07:18:56;;;;;;;6.03;4.53;;;36.50;58.20;;;;;;5026419;28;21270;-67
2023/06/10 07:21:23;;;;;;;6.60;3.88;;;36.10;56.10;;;;;;5029601;28;20021;-68
2023/06/10 07:23:49;;;;;;;4.28;3.88;;;36.10;55.90;;;;;;5030805;28;20084;-68
2023/06/10 07:26:14;;;;;;;6.95;3.50;;;37.10;56.60;;;;;;5024479;28;20033;-67
2023/06/10 07:28:41;;;;;;;4.72;3.75;;;37.50;54.70;;;;;;5025182;28;20025;-67
2023/06/10 07:31:08;;;;;;;5.47;3.63;;;37.10;54.10;;;;;;5027513;28;20108;-67
2023/06/10 07:33:33;;;;;;;4.40;3.75;;;37.50;54.40;;;;;;5026824;28;20030;-68
2023/06/10 07:35:59;;;;;;;6.15;3.40;;;37.00;53.70;;;;;;5030843;28;20497;-67
2023/06/10 07:38:25;;;;;;;5.13;3.55;;;37.70;52.30;;;;;;5030831;28;20062;-68
2023/06/10 07:40:51;;;;;;;5.70;4.20;;;37.80;53.40;;;;;;5028447;28;20383;-68
2023/06/10 07:43:17;;;;;;;14.32;4.03;;;37.10;51.80;;;;;;5027790;28;20087;-68
2023/06/10 07:45:43;;;;;;;6.20;3.78;;;37.70;53.40;;;;;;5026895;28;20104;-68
2023/06/10 07:48:09;;;;;;;5.15;3.60;;;37.90;52.00;;;;;;5028789;28;20021;-68
2023/06/10 07:50:35;;;;;;;9.43;3.90;;;36.90;53.70;;;;;;5028796;28;20099;-68
2023/06/10 07:53:02;;;;;;;4.22;3.47;;;37.40;53.00;;;;;;5031249;28;20023;-68
2023/06/10 07:55:27;;;;;;;5.13;3.65;;;37.50;52.10;;;;;;5027628;28;20491;-68
2023/06/10 07:57:54;;;;;;;5.50;4.20;;;37.40;53.50;;;;;;5028436;28;20029;-67
2023/06/10 08:00:20;;;;;;;4.65;3.35;;;38.10;52.40;;;;;;5018057;28;20097;-67
2023/06/10 08:02:46;;;;;;;3.60;3.30;;;37.80;51.30;;;;;;5023749;28;20672;-68
2023/06/10 08:05:12;;;;;;;5.45;3.95;;;37.20;52.60;;;;;;5028472;28;20044;-68
2023/06/10 08:07:38;;;;;;;7.95;4.03;;;38.00;53.90;;;;;;5028653;28;20029;-68
2023/06/10 08:10:05;;;;;;;5.45;3.60;;;37.70;52.50;;;;;;5026952;28;20095;-68
2023/06/10 08:12:31;;;;;;;6.10;3.80;;;37.40;52.10;;;;;;5006506;28;20809;-69
2023/06/10 08:14:57;;;;;;;9.23;4.10;;;37.20;52.50;;;;;;5026525;28;20483;-68
2023/06/10 08:17:23;;;;;;;4.72;3.35;;;37.40;53.10;;;;;;5024242;28;20112;-68
2023/06/10 08:19:48;;;;;;;4.03;3.28;;;37.40;53.10;;;;;;5028796;28;20026;-69
2023/06/10 08:22:14;;;;;;;5.85;3.28;;;37.30;52.30;;;;;;5029100;28;20043;-69
2023/06/10 08:24:40;;;;;;;4.93;3.38;;;37.50;53.60;;;;;;5028406;28;20104;-69
2023/06/10 08:27:05;;;;;;;7.05;3.67;;;37.40;53.40;;;;;;5023732;28;20075;-68
2023/06/10 08:29:31;;;;;;;4.40;3.78;;;37.00;52.60;;;;;;5026783;28;20055;-68
2023/06/10 08:31:58;;;;;;;4.80;3.55;;;37.50;53.80;;;;;;5027944;28;20034;-68
2023/06/10 08:34:23;;;;;;;6.72;3.35;;;38.00;53.80;;;;;;5024742;28;20053;-68
2023/06/10 08:36:53;;;;;;;4.88;3.92;;;38.90;51.30;;;;;;5029528;28;20057;-68
2023/06/10 08:39:19;;;;;;;4.60;3.65;;;39.10;53.60;;;;;;5029398;28;20017;-68
2023/06/10 08:42:08;;;;;;;4.03;3.47;;;38.40;52.60;;;;;;5021204;28;20060;-68
2023/06/10 08:44:38;;;;;;;4.45;3.50;;;39.30;51.50;;;;;;5025078;28;20060;-68
2023/06/10 08:47:10;;;;;;;5.80;4.00;;;38.20;51.70;;;;;;5028917;28;20104;-69
2023/06/10 08:49:38;;;;;;;4.43;3.72;;;38.50;53.20;;;;;;5029468;28;20025;-68
2023/06/10 08:52:06;;;;;;;7.22;4.03;;;38.50;54.60;;;;;;5029082;28;20403;-68
2023/06/10 08:54:37;;;;;;;9.27;3.55;;;39.70;51.40;;;;;;5027702;28;20040;-69
2023/06/10 08:57:08;;;;;;;6.05;3.63;;;39.30;50.70;;;;;;5020670;28;20033;-68
2023/06/10 08:59:34;;;;;;;9.25;4.25;;;38.70;51.80;;;;;;5027911;28;20049;-68
2023/06/10 09:02:02;;;;;;;5.03;3.60;;;37.80;51.60;;;;;;5025149;28;20068;-68
2023/06/10 09:04:27;;;;;;;7.90;3.38;;;38.10;52.70;;;;;;5025981;28;20036;-69
2023/06/10 09:06:54;;;;;;;4.90;3.50;;;38.90;51.90;;;;;;5025632;28;20033;-68
2023/06/10 09:09:20;;;;;;;7.30;4.10;;;38.00;51.50;;;;;;5025676;28;20030;-68
2023/06/10 09:11:45;;;;;;;4.78;4.05;;;38.30;54.20;;;;;;5025240;28;20041;-67
2023/06/10 09:14:16;;;;;;;3.65;3.35;;;39.10;53.10;;;;;;5013462;28;20424;-68
2023/06/10 09:16:42;;;;;;;4.88;3.65;;;39.70;51.40;;;;;;5022788;28;20021;-68
2023/06/10 09:19:08;;;;;;;5.63;3.60;;;39.20;52.70;;;;;;5025809;28;20076;-68
2023/06/10 09:21:35;;;;;;;4.90;3.92;;;39.20;52.20;;;;;;5027326;28;20034;-68
2023/06/10 09:24:01;;;;;;;7.65;3.83;;;39.50;50.60;;;;;;5022840;28;20438;-68
2023/06/10 09:26:30;;;;;;;6.07;4.00;;;39.10;52.10;;;;;;5022864;28;20029;-68
2023/06/10 09:29:08;;;;;;;4.63;3.35;;;39.10;51.40;;;;;;5018399;28;20029;-67
2023/06/10 09:31:36;;;;;;;5.82;3.58;;;38.60;50.90;;;;;;5025214;28;20021;-68
2023/06/10 09:34:14;;;;;;;5.13;3.92;;;38.50;51.80;;;;;;5026641;28;20035;-68
2023/06/10 09:36:40;;;;;;;5.68;3.67;;;38.40;50.40;;;;;;5023471;28;20067;-68
2023/06/10 09:39:18;;;;;;;4.03;3.40;;;38.30;49.80;;;;;;5028049;28;20052;-68
2023/06/10 09:41:45;;;;;;;4.88;3.75;;;38.20;49.30;;;;;;5029623;28;20475;-68
2023/06/10 09:44:16;;;;;;;5.95;3.70;;;38.30;48.70;;;;;;5026067;28;20589;-68
2023/06/10 09:46:42;;;;;;;5.28;3.47;;;37.30;48.40;;;;;;5025194;28;20065;-68
2023/06/10 09:49:08;;;;;;;3.95;3.15;;;37.00;49.60;;;;;;5028926;28;20033;-68
2023/06/10 09:51:34;;;;;;;5.50;3.38;;;37.20;48.90;;;;;;5028369;28;20025;-68
2023/06/10 09:54:03;;;;;;;4.78;3.10;;;37.40;47.80;;;;;;5019714;28;20026;-67
2023/06/10 09:56:42;;;;;;;6.03;3.90;;;38.00;50.50;;;;;;5026512;28;20033;-68
2023/06/10 09:59:08;;;;;;;4.07;3.55;;;36.90;47.50;;;;;;5027602;28;20053;-68
2023/06/10 10:01:33;;;;;;;5.15;3.42;;;36.90;48.20;;;;;;5024547;28;20049;-68
2023/06/10 10:04:00;;;;;;;6.90;4.03;;;37.20;48.40;;;;;;5025750;28;20041;-67
2023/06/10 10:06:27;;;;;;;6.25;3.47;;;36.60;49.10;;;;;;5021771;28;20021;-67
2023/06/10 10:08:53;;;;;;;8.32;3.78;;;36.30;50.80;;;;;;5027115;28;20087;-68
2023/06/10 10:11:21;;;;;;;5.20;3.88;;;34.90;50.20;;;;;;5026546;28;20479;-67
2023/06/10 10:13:50;;;;;;;8.80;4.20;;;34.70;51.40;;;;;;5019801;28;20403;-67
2023/06/10 10:16:19;;;;;;;5.65;4.35;;;34.50;51.30;;;;;;5030783;28;20026;-67
2023/06/10 10:19:05;;;;;;;7.53;3.90;;;34.40;50.60;;;;;;5032577;28;20108;-67
2023/06/10 10:21:35;;;;;;;5.72;3.63;;;34.40;52.40;;;;;;5025146;28;20029;-67
2023/06/10 10:24:20;;;;;;;7.03;3.40;;;34.70;52.80;;;;;;5028593;28;20041;-67
2023/06/10 10:26:47;;;;;;;6.18;3.38;;;34.90;53.50;;;;;;5024638;28;20071;-67
2023/06/10 10:29:25;;;;;;;7.03;3.70;;;34.90;51.70;;;;;;5020914;28;20029;-67
2023/06/10 10:31:54;;;;;;;7.63;3.20;;;34.60;49.80;;;;;;5031041;28;20100;-67
2023/06/10 10:34:30;;;;;;;5.35;3.85;;;34.20;51.80;;;;;;5030535;28;20034;-68
2023/06/10 10:36:56;;;;;;;7.55;3.35;;;34.10;52.20;;;;;;5029582;28;20396;-68
2023/06/10 10:39:22;;;;;;;6.47;3.38;;;34.60;53.60;;;;;;5029005;28;20014;-67
2023/06/10 10:41:49;;;;;;;10.07;4.10;;;34.30;52.70;;;;;;5026970;28;20525;-67
2023/06/10 10:44:16;;;;;;;5.05;3.47;;;34.20;49.70;;;;;;5032067;28;20468;-67
2023/06/10 10:46:51;;;;;;;5.10;3.50;;;33.90;50.90;;;;;;5030504;28;20033;-67
2023/06/10 10:49:18;;;;;;;6.82;4.00;;;34.20;51.50;;;;;;5030367;28;20087;-67
2023/06/10 10:52:00;;;;;;;7.18;3.65;;;33.90;50.80;;;;;;5029386;28;20081;-67
2023/06/10 10:54:33;;;;;;;10.95;3.63;;;34.00;50.50;;;;;;5025040;28;20048;-67
2023/06/10 10:57:19;;;;;;;5.63;3.58;;;33.60;51.80;;;;;;5029410;28;20487;-67
2023/06/10 10:59:48;;;;;;;8.13;3.72;;;33.50;50.60;;;;;;5030477;28;20513;-66
2023/06/10 11:02:32;;;;;;;7.05;3.63;;;33.40;50.90;;;;;;5027221;28;20040;-67
2023/06/10 11:04:58;;;;;;;5.82;3.53;;;33.40;50.30;;;;;;5026554;28;20030;-67
2023/06/10 11:07:25;;;;;;;4.68;3.30;;;33.10;49.50;;;;;;5020665;28;20372;-67
2023/06/10 11:10:02;;;;;;;4.10;3.17;;;33.10;50.40;;;;;;5030638;28;20033;-67
2023/06/10 11:12:54;;;;;;;4.88;3.40;;;33.00;50.90;;;;;;5015266;28;20515;-67
2023/06/10 11:15:27;;;;;;;4.80;2.88;;;33.40;52.00;;;;;;5029013;28;20029;-68
2023/06/10 11:18:10;;;;;;;7.25;4.35;;;33.80;49.40;;;;;;5029559;28;20025;-66
2023/06/10 11:20:48;;;;;;;5.63;3.65;;;33.30;49.70;;;;;;5025866;28;20056;-67
2023/06/10 11:23:37;;;;;;;10.32;3.53;;;33.40;49.00;;;;;;5030619;28;20083;-67
2023/06/10 11:26:18;;;;;;;4.88;3.58;;;33.60;50.10;;;;;;5026769;28;20052;-67
2023/06/10 11:28:46;;;;;;;3.92;3.30;;;33.30;49.50;;;;;;5015725;28;20030;-67
2023/06/10 11:31:49;;;;;;;5.20;3.80;;;33.20;49.50;;;;;;5028666;28;20554;-67
2023/06/10 11:34:20;;;;;;;5.18;3.35;;;32.90;49.90;;;;;;5005713;28;20546;-67
2023/06/10 11:36:46;;;;;;;8.90;4.20;;;32.70;50.50;;;;;;5024060;28;20044;-66
2023/06/10 11:39:12;;;;;;;5.85;3.47;;;32.60;51.20;;;;;;5024741;28;20025;-67
2023/06/10 11:41:39;;;;;;;10.82;3.55;;;32.70;50.50;;;;;;5029008;28;20025;-66
2023/06/10 11:44:08;;;;;;;6.38;2.75;;;32.50;50.90;;;;;;5030423;28;20495;-67
2023/06/10 11:46:35;;;;;;;9.30;3.47;;;32.80;50.30;;;;;;5028754;28;20055;-67
2023/06/10 11:49:02;;;;;;;4.25;3.28;;;32.90;50.90;;;;;;5027357;28;20548;-67
2023/06/10 11:51:30;;;;;;;8.48;3.20;;;32.90;50.50;;;;;;5024546;28;20029;-67
2023/06/10 11:53:56;;;;;;;12.13;3.08;;;32.80;49.80;;;;;;5030874;28;20148;-66
2023/06/10 11:56:26;;;;;;;6.57;3.13;;;32.70;49.00;;;;;;5027648;28;20108;-67
2023/06/10 11:58:57;;;;;;;5.65;3.40;;;32.50;49.10;;;;;;5029437;28;20550;-67
2023/06/10 12:01:25;;;;;;;9.45;3.90;;;32.50;49.00;;;;;;5027798;28;20029;-67
2023/06/10 12:04:00;;;;;;;6.88;3.38;;;32.30;48.70;;;;;;5029728;28;20060;-67
2023/06/10 12:06:27;;;;;;;3.92;2.95;;;32.30;49.10;;;;;;5023380;28;20025;-67
2023/06/10 12:08:55;;;;;;;4.35;3.03;;;32.20;50.30;;;;;;5026654;28;20033;-67
2023/06/10 12:11:21;;;;;;;5.90;3.10;;;32.20;51.90;;;;;;5027247;28;20033;-68
2023/06/10 12:13:51;;;;;;;11.20;3.00;;;32.30;51.00;;;;;;5014715;28;20041;-67
2023/06/10 12:16:17;;;;;;;3.55;2.78;;;32.30;50.90;;;;;;5029140;28;20029;-67
2023/06/10 12:18:46;;;;;;;5.65;3.50;;;32.30;48.70;;;;;;5028400;28;20033;-67
2023/06/10 12:21:17;;;;;;;11.00;3.38;;;32.40;51.30;;;;;;5028675;28;20057;-67
2023/06/10 12:24:05;;;;;;;9.45;3.17;;;32.40;50.10;;;;;;5030433;28;20038;-67
2023/06/10 12:26:47;;;;;;;4.68;2.72;;;32.60;50.30;;;;;;5022078;28;20899;-67
2023/06/10 12:29:22;;;;;;;8.15;3.50;;;32.60;50.40;;;;;;5027647;28;20036;-67
2023/06/10 12:32:02;;;;;;;7.60;3.33;;;32.70;50.00;;;;;;5025703;28;20029;-67
2023/06/10 12:34:39;;;;;;;4.57;2.83;;;33.00;49.70;;;;;;5029916;28;20128;-67
2023/06/10 12:37:13;;;;;;;4.70;3.20;;;33.20;49.90;;;;;;5024856;28;20095;-67
2023/06/10 12:39:39;;;;;;;4.55;3.22;;;33.00;48.90;;;;;;5029188;28;20017;-67
2023/06/10 12:42:08;;;;;;;10.02;3.00;;;32.80;49.60;;;;;;5032436;28;20042;-67
2023/06/10 12:44:38;;;;;;;6.80;3.33;;;33.00;51.50;;;;;;5035898;28;20025;-67
2023/06/10 12:47:14;;;;;;;4.18;2.97;;;32.90;48.70;;;;;;5027017;28;20040;-67
2023/06/10 12:49:39;;;;;;;4.32;2.97;;;32.60;49.50;;;;;;5024091;28;20515;-67